createdAt,value
2019-05-07T00:01:58.421Z,7.50
2019-05-07T00:04:28.038Z,7.59
2019-05-07T00:06:57.720Z,7.69
2019-05-07T00:09:27.466Z,7.70
2019-05-07T00:11:57.087Z,7.72
2019-05-07T00:14:26.769Z,7.75
2019-05-07T00:16:56.485Z,7.80
2019-05-07T00:19:26.469Z,7.89
2019-05-07T00:21:56.077Z,7.94
2019-05-07T00:24:25.905Z,7.99
2019-05-07T00:26:55.990Z,8.02
2019-05-07T00:29:25.603Z,8.05
2019-05-07T00:31:55.760Z,8.15
2019-05-07T00:34:27.023Z,8.24
2019-05-07T00:36:58.273Z,8.25
2019-05-07T00:39:32.858Z,8.17
2019-05-07T00:42:12.579Z,8.13
2019-05-07T00:44:55.339Z,8.06
2019-05-07T00:47:25.040Z,8.01
2019-05-07T00:49:56.433Z,7.96
2019-05-07T00:52:26.103Z,7.93
2019-05-07T00:54:55.701Z,7.93
2019-05-07T00:57:25.775Z,7.95
2019-05-07T00:59:55.431Z,7.98
2019-05-07T01:02:25.054Z,8.07
2019-05-07T01:04:54.660Z,8.08
2019-05-07T01:07:24.318Z,8.07
2019-05-07T01:09:53.930Z,8.04
2019-05-07T01:12:24.218Z,8.03
2019-05-07T01:14:53.969Z,7.97
2019-05-07T01:17:23.580Z,7.94
2019-05-07T01:19:53.459Z,7.97
2019-05-07T01:22:23.087Z,7.98
2019-05-07T01:24:53.638Z,7.99
2019-05-07T01:27:23.419Z,7.96
2019-05-07T01:29:53.075Z,7.94
2019-05-07T01:32:27.057Z,7.89
2019-05-07T01:35:16.033Z,7.82
2019-05-07T01:37:45.933Z,7.79
2019-05-07T01:40:15.915Z,7.78
2019-05-07T01:42:45.557Z,7.76
2019-05-07T01:45:16.226Z,7.71
2019-05-07T01:47:45.838Z,7.68
2019-05-07T01:50:15.954Z,7.71
2019-05-07T01:52:45.557Z,7.65
2019-05-07T01:55:15.168Z,7.57
2019-05-07T01:57:44.830Z,7.54
2019-05-07T02:00:15.734Z,7.43
2019-05-07T02:02:52.784Z,7.31
2019-05-07T02:05:30.038Z,7.23
2019-05-07T02:08:02.941Z,7.24
2019-05-07T02:10:37.099Z,7.18
2019-05-07T02:13:07.019Z,7.07
2019-05-07T02:15:36.624Z,7.04
2019-05-07T02:18:06.233Z,6.97
2019-05-07T02:20:36.927Z,6.92
2019-05-07T02:23:06.610Z,6.85
2019-05-07T02:25:36.233Z,6.78
2019-05-07T02:28:05.904Z,6.76
2019-05-07T02:30:35.515Z,6.78
2019-05-07T02:33:05.134Z,6.78
2019-05-07T02:35:34.796Z,6.79
2019-05-07T02:38:13.723Z,6.86
2019-05-07T02:40:48.484Z,6.91
2019-05-07T02:43:18.114Z,6.83
2019-05-07T02:45:54.863Z,6.79
2019-05-07T02:48:26.121Z,6.79
2019-05-07T02:50:57.380Z,6.79
2019-05-07T02:53:28.667Z,6.79
2019-05-07T02:56:03.547Z,6.72
2019-05-07T02:58:33.519Z,6.70
2019-05-07T03:01:04.985Z,6.74
2019-05-07T03:03:34.948Z,6.73
2019-05-07T03:06:04.618Z,6.79
2019-05-07T03:08:34.261Z,6.85
2019-05-07T03:11:04.233Z,6.87
2019-05-07T03:13:34.063Z,6.88
2019-05-07T03:16:04.325Z,6.86
2019-05-07T03:18:34.006Z,6.84
2019-05-07T03:21:19.184Z,6.81
2019-05-07T03:23:58.992Z,6.77
2019-05-07T03:26:30.273Z,6.79
2019-05-07T03:29:03.940Z,6.70
2019-05-07T03:31:36.284Z,6.60
2019-05-07T03:34:15.513Z,6.53
2019-05-07T03:36:47.482Z,6.54
2019-05-07T03:39:14.903Z,6.52
2019-05-07T03:41:45.208Z,6.54
2019-05-07T03:44:23.962Z,6.57
2019-05-07T03:47:01.888Z,6.66
2019-05-07T03:49:29.060Z,6.76
2019-05-07T03:51:58.658Z,6.81
2019-05-07T03:54:28.332Z,6.80
2019-05-07T03:57:04.213Z,6.76
2019-05-07T03:59:29.793Z,6.77
2019-05-07T04:02:03.078Z,6.77
2019-05-07T04:04:33.210Z,6.80
2019-05-07T04:07:03.593Z,6.84
2019-05-07T04:09:33.879Z,6.85
2019-05-07T04:12:04.136Z,6.87
2019-05-07T04:14:34.846Z,6.93
2019-05-07T04:17:14.530Z,6.93
2019-05-07T04:19:35.929Z,6.92
2019-05-07T04:22:05.517Z,6.98
2019-05-07T04:24:36.842Z,7.01
2019-05-07T04:27:12.956Z,6.99
2019-05-07T04:29:42.955Z,7.02
2019-05-07T04:32:14.434Z,7.08
2019-05-07T04:34:45.724Z,7.06
2019-05-07T04:37:15.804Z,7.04
2019-05-07T04:39:54.773Z,7.03
2019-05-07T04:42:25.257Z,7.05
2019-05-07T04:44:54.876Z,7.07
2019-05-07T04:47:38.605Z,7.08
2019-05-07T04:49:56.710Z,7.15
2019-05-07T04:52:33.401Z,7.22
2019-05-07T04:55:04.154Z,7.32
2019-05-07T04:57:33.947Z,7.42
2019-05-07T05:00:04.948Z,7.46
2019-05-07T05:02:43.465Z,7.51
2019-05-07T05:05:15.443Z,7.53
2019-05-07T05:07:45.054Z,7.58
2019-05-07T05:10:14.858Z,7.65
2019-05-07T05:12:45.137Z,7.67
2019-05-07T05:15:14.885Z,7.69
2019-05-07T05:17:49.961Z,7.71
2019-05-07T05:20:18.334Z,7.74
2019-05-07T05:23:05.721Z,7.72
2019-05-07T05:25:39.510Z,7.74
2019-05-07T05:28:09.504Z,7.82
2019-05-07T05:30:42.466Z,7.93
2019-05-07T05:33:12.842Z,8.01
2019-05-07T05:35:43.185Z,8.02
2019-05-07T05:38:13.169Z,8.08
2019-05-07T05:40:43.248Z,8.05
2019-05-07T05:43:16.896Z,7.94
2019-05-07T05:45:48.357Z,7.85
2019-05-07T05:48:18.237Z,7.81
2019-05-07T05:51:02.639Z,7.83
2019-05-07T05:53:52.268Z,7.82
2019-05-07T05:56:23.147Z,7.85
2019-05-07T05:58:56.878Z,7.91
2019-05-07T06:01:32.028Z,7.91
2019-05-07T06:04:03.469Z,7.90
2019-05-07T06:06:35.544Z,7.84
2019-05-07T06:09:24.934Z,7.80
2019-05-07T06:12:12.776Z,7.76
2019-05-07T06:14:44.093Z,7.79
2019-05-07T06:17:15.339Z,7.87
2019-05-07T06:19:46.623Z,7.94
2019-05-07T06:22:34.014Z,8.01
2019-05-07T06:25:06.439Z,8.10
2019-05-07T06:27:36.252Z,8.20
2019-05-07T06:30:06.558Z,8.31
2019-05-07T06:32:36.162Z,8.30
2019-05-07T06:35:06.919Z,8.27
2019-05-07T06:37:39.852Z,8.28
2019-05-07T06:40:12.124Z,8.33
2019-05-07T06:42:46.579Z,8.39
2019-05-07T06:45:24.769Z,8.39
2019-05-07T06:47:54.422Z,8.44
2019-05-07T06:50:24.215Z,8.50
2019-05-07T06:52:53.994Z,8.53
2019-05-07T06:55:23.671Z,8.54
2019-05-07T06:57:53.969Z,8.57
2019-05-07T07:00:26.169Z,8.59
2019-05-07T07:02:57.471Z,8.65
2019-05-07T07:05:34.439Z,8.73
2019-05-07T07:08:15.200Z,8.84
2019-05-07T07:11:02.654Z,8.89
2019-05-07T07:13:32.655Z,8.95
2019-05-07T07:16:02.255Z,8.94
2019-05-07T07:18:32.426Z,8.92
2019-05-07T07:21:02.635Z,9.01
2019-05-07T07:23:32.628Z,9.05
2019-05-07T07:26:03.129Z,9.11
2019-05-07T07:28:33.246Z,9.14
2019-05-07T07:31:25.958Z,9.19
2019-05-07T07:33:55.558Z,9.25
2019-05-07T07:36:26.834Z,9.15
2019-05-07T07:38:56.512Z,9.15
2019-05-07T07:41:42.554Z,9.18
2019-05-07T07:44:13.449Z,9.21
2019-05-07T07:46:43.157Z,9.20
2019-05-07T07:49:15.083Z,9.17
2019-05-07T07:51:45.613Z,9.20
2019-05-07T07:54:15.520Z,9.26
2019-05-07T07:56:52.371Z,9.29
2019-05-07T07:59:25.506Z,9.32
2019-05-07T08:02:05.802Z,9.23
2019-05-07T08:04:35.885Z,9.04
2019-05-07T08:07:05.501Z,8.87
2019-05-07T08:09:35.758Z,8.53
2019-05-07T08:12:05.934Z,8.24
2019-05-07T08:14:36.129Z,8.08
2019-05-07T08:17:07.435Z,8.09
2019-05-07T08:19:37.128Z,8.25
2019-05-07T08:22:06.736Z,8.36
2019-05-07T08:24:36.401Z,8.55
2019-05-07T08:27:06.084Z,8.88
2019-05-07T08:29:35.704Z,9.11
2019-05-07T08:32:06.988Z,9.19
2019-05-07T08:34:42.797Z,9.21
2019-05-07T08:37:12.600Z,9.19
2019-05-07T08:39:42.907Z,9.14
2019-05-07T08:42:12.575Z,9.14
2019-05-07T08:44:43.828Z,9.18
2019-05-07T08:47:15.115Z,9.15
2019-05-07T08:49:45.009Z,9.13
2019-05-07T08:52:14.842Z,9.15
2019-05-07T08:54:44.523Z,9.26
2019-05-07T08:57:14.205Z,9.41
2019-05-07T08:59:57.448Z,9.47
2019-05-07T09:02:15.547Z,9.61
2019-05-07T09:04:45.165Z,9.79
2019-05-07T09:07:14.785Z,9.95
2019-05-07T09:09:45.000Z,10.00
2019-05-07T09:12:14.625Z,10.04
2019-05-07T09:14:45.016Z,10.09
2019-05-07T09:17:16.145Z,10.00
2019-05-07T09:19:51.144Z,10.05
2019-05-07T09:22:17.186Z,10.11
2019-05-07T09:24:46.881Z,10.12
2019-05-07T09:27:27.525Z,10.15
2019-05-07T09:30:02.713Z,10.20
2019-05-07T09:32:36.479Z,10.23
2019-05-07T09:35:14.014Z,10.19
2019-05-07T09:37:43.675Z,10.11
2019-05-07T09:40:13.737Z,10.09
2019-05-07T09:42:43.407Z,10.05
2019-05-07T09:45:13.260Z,10.04
2019-05-07T09:47:43.234Z,10.10
2019-05-07T09:50:13.436Z,10.13
2019-05-07T09:52:43.057Z,10.18
2019-05-07T09:55:16.773Z,10.18
2019-05-07T09:57:44.454Z,10.32
2019-05-07T10:00:15.233Z,10.49
2019-05-07T10:02:44.930Z,10.66
2019-05-07T10:05:15.309Z,10.82
2019-05-07T10:07:45.002Z,10.85
2019-05-07T10:10:15.356Z,10.92
2019-05-07T10:12:46.817Z,10.90
2019-05-07T10:15:17.732Z,10.83
2019-05-07T10:17:52.032Z,10.77
2019-05-07T10:20:22.914Z,10.76
2019-05-07T10:22:52.939Z,10.80
2019-05-07T10:25:22.701Z,10.92
2019-05-07T10:27:53.191Z,11.02
2019-05-07T10:30:23.069Z,11.01
2019-05-07T10:32:52.885Z,10.92
2019-05-07T10:35:23.032Z,10.64
2019-05-07T10:37:53.034Z,10.16
2019-05-07T10:40:23.772Z,9.98
2019-05-07T10:42:54.086Z,9.94
2019-05-07T10:45:36.848Z,9.91
2019-05-07T10:48:22.845Z,9.89
2019-05-07T10:51:02.866Z,9.94
2019-05-07T10:53:32.598Z,10.06
2019-05-07T10:56:02.763Z,10.09
2019-05-07T10:58:32.478Z,10.11
2019-05-07T11:01:03.027Z,10.11
2019-05-07T11:03:32.720Z,10.11
2019-05-07T11:06:02.336Z,10.11
2019-05-07T11:08:32.880Z,10.16
2019-05-07T11:11:03.121Z,10.15
2019-05-07T11:13:32.784Z,10.18
2019-05-07T11:16:11.750Z,10.29
2019-05-07T11:18:43.144Z,10.40
2019-05-07T11:21:14.203Z,10.60
2019-05-07T11:23:43.856Z,10.75
2019-05-07T11:26:13.466Z,10.86
2019-05-07T11:28:43.094Z,10.99
2019-05-07T11:31:12.851Z,11.31
2019-05-07T11:33:42.461Z,11.58
2019-05-07T11:36:12.081Z,11.54
2019-05-07T11:38:44.527Z,11.50
2019-05-07T11:41:13.126Z,11.48
2019-05-07T11:43:47.095Z,11.62
2019-05-07T11:46:22.226Z,11.87
2019-05-07T11:48:59.634Z,11.90
2019-05-07T11:51:36.878Z,11.88
2019-05-07T11:54:12.716Z,11.92
2019-05-07T11:56:43.173Z,11.91
2019-05-07T11:59:13.572Z,12.06
2019-05-07T12:01:48.202Z,12.10
2019-05-07T12:04:18.131Z,12.13
2019-05-07T12:06:47.755Z,12.25
2019-05-07T12:09:17.443Z,12.39
2019-05-07T12:11:47.385Z,12.46
2019-05-07T12:14:27.956Z,12.49
2019-05-07T12:16:48.337Z,12.67
2019-05-07T12:19:18.495Z,12.72
2019-05-07T12:21:48.150Z,12.87
2019-05-07T12:24:17.808Z,12.98
2019-05-07T12:26:47.639Z,13.70
2019-05-07T12:29:17.258Z,14.84
2019-05-07T12:31:55.772Z,15.64
2019-05-07T12:34:27.097Z,15.25
2019-05-07T12:36:56.791Z,14.59
2019-05-07T12:39:26.475Z,13.98
2019-05-07T12:41:56.119Z,14.27
2019-05-07T12:44:25.747Z,15.62
2019-05-07T12:46:55.404Z,16.35
2019-05-07T12:49:25.039Z,17.20
2019-05-07T12:51:56.295Z,18.22
2019-05-07T12:54:27.618Z,17.81
2019-05-07T12:56:57.239Z,17.73
2019-05-07T12:59:27.138Z,17.99
2019-05-07T13:01:58.425Z,19.06
2019-05-07T13:04:32.611Z,19.70
2019-05-07T13:07:03.907Z,19.96
2019-05-07T13:09:33.530Z,19.72
2019-05-07T13:12:03.205Z,18.44
2019-05-07T13:14:32.830Z,18.41
2019-05-07T13:17:02.848Z,18.41
2019-05-07T13:19:33.369Z,19.73
2019-05-07T13:22:03.021Z,19.36
2019-05-07T13:24:32.638Z,19.12
2019-05-07T13:27:03.315Z,18.11
2019-05-07T13:29:33.088Z,16.26
2019-05-07T13:32:03.843Z,15.22
2019-05-07T13:34:34.234Z,15.88
2019-05-07T13:37:06.147Z,17.88
2019-05-07T13:39:37.746Z,17.49
2019-05-07T13:42:08.994Z,18.31
2019-05-07T13:44:45.835Z,19.44
2019-05-07T13:47:26.063Z,18.34
2019-05-07T13:49:55.969Z,17.92
2019-05-07T13:52:26.046Z,17.59
2019-05-07T13:54:55.788Z,17.63
2019-05-07T13:57:25.513Z,17.38
2019-05-07T13:59:55.193Z,16.81
2019-05-07T14:02:29.121Z,16.54
2019-05-07T14:04:58.911Z,15.99
2019-05-07T14:07:32.270Z,16.11
2019-05-07T14:10:02.323Z,16.39
2019-05-07T14:12:33.768Z,16.64
2019-05-07T14:15:03.785Z,16.62
2019-05-07T14:17:33.818Z,16.08
2019-05-07T14:20:04.857Z,15.75
2019-05-07T14:22:34.735Z,15.29
2019-05-07T14:25:06.255Z,15.32
2019-05-07T14:27:35.929Z,15.29
2019-05-07T14:30:08.629Z,15.55
2019-05-07T14:32:42.792Z,15.29
2019-05-07T14:35:32.218Z,15.11
2019-05-07T14:38:08.963Z,15.04
2019-05-07T14:40:38.610Z,15.24
2019-05-07T14:43:15.905Z,15.14
2019-05-07T14:45:45.518Z,15.01
2019-05-07T14:48:15.216Z,14.76
2019-05-07T14:50:45.166Z,14.66
2019-05-07T14:53:15.227Z,14.76
2019-05-07T14:55:44.923Z,15.08
2019-05-07T14:58:14.613Z,15.37
2019-05-07T15:00:44.307Z,15.70
2019-05-07T15:03:13.934Z,16.03
2019-05-07T15:05:43.611Z,16.20
2019-05-07T15:08:14.339Z,15.87
2019-05-07T15:10:45.470Z,15.70
2019-05-07T15:13:15.552Z,15.49
2019-05-07T15:15:45.943Z,14.93
2019-05-07T15:18:26.380Z,14.67
2019-05-07T15:20:56.133Z,14.78
2019-05-07T15:23:30.597Z,14.92
2019-05-07T15:26:04.289Z,15.12
2019-05-07T15:28:32.906Z,15.42
2019-05-07T15:31:13.233Z,15.57
2019-05-07T15:33:42.948Z,15.65
2019-05-07T15:36:12.818Z,15.60
2019-05-07T15:38:43.030Z,15.53
2019-05-07T15:41:12.832Z,15.55
2019-05-07T15:43:45.852Z,15.49
2019-05-07T15:46:15.332Z,15.45
2019-05-07T15:48:45.216Z,15.59
2019-05-07T15:51:16.877Z,15.32
2019-05-07T15:53:47.836Z,14.92
2019-05-07T15:56:17.691Z,14.73
2019-05-07T15:58:47.327Z,14.90
2019-05-07T16:01:17.022Z,15.04
2019-05-07T16:03:47.294Z,15.09
2019-05-07T16:06:16.935Z,15.09
2019-05-07T16:08:49.194Z,14.86
2019-05-07T16:11:19.032Z,14.45
2019-05-07T16:13:52.459Z,14.17
2019-05-07T16:16:24.586Z,14.19
2019-05-07T16:18:55.828Z,14.39
2019-05-07T16:21:25.448Z,14.52
2019-05-07T16:23:55.118Z,14.66
2019-05-07T16:26:24.773Z,14.76
2019-05-07T16:28:54.412Z,14.61
2019-05-07T16:31:24.693Z,14.46
2019-05-07T16:33:54.406Z,14.36
2019-05-07T16:36:24.025Z,14.13
2019-05-07T16:38:53.695Z,13.99
2019-05-07T16:41:23.591Z,13.94
2019-05-07T16:43:53.208Z,13.83
2019-05-07T16:46:23.703Z,13.69
2019-05-07T16:48:53.593Z,13.63
2019-05-07T16:51:23.244Z,13.57
2019-05-07T16:53:52.900Z,13.53
2019-05-07T16:56:22.808Z,13.24
2019-05-07T16:59:07.604Z,13.02
2019-05-07T17:01:37.465Z,12.99
2019-05-07T17:04:07.122Z,12.74
2019-05-07T17:06:36.772Z,12.46
2019-05-07T17:09:08.383Z,12.23
2019-05-07T17:11:38.034Z,12.03
2019-05-07T17:14:07.728Z,11.83
2019-05-07T17:16:37.354Z,11.77
2019-05-07T17:19:07.336Z,11.76
2019-05-07T17:21:37.012Z,11.71
2019-05-07T17:24:06.638Z,11.59
2019-05-07T17:26:36.263Z,11.57
2019-05-07T17:29:06.735Z,11.58
2019-05-07T17:31:36.339Z,11.52
2019-05-07T17:34:06.187Z,11.45
2019-05-07T17:36:36.067Z,11.43
2019-05-07T17:39:07.281Z,11.45
2019-05-07T17:41:36.871Z,11.43
2019-05-07T17:44:06.580Z,11.41
2019-05-07T17:46:36.171Z,11.38
2019-05-07T17:49:05.877Z,11.26
2019-05-07T17:51:44.991Z,11.20
2019-05-07T17:54:14.707Z,11.09
2019-05-07T17:56:45.043Z,11.11
2019-05-07T17:59:16.257Z,11.02
2019-05-07T18:02:05.738Z,10.98
2019-05-07T18:04:50.482Z,10.97
2019-05-07T18:07:11.775Z,11.07
2019-05-07T18:09:42.445Z,11.13
2019-05-07T18:12:12.383Z,11.13
2019-05-07T18:14:42.494Z,11.13
2019-05-07T18:17:13.870Z,11.12
2019-05-07T18:19:44.062Z,11.10
2019-05-07T18:22:13.749Z,11.04
2019-05-07T18:24:43.520Z,10.95
2019-05-07T18:27:14.857Z,10.84
2019-05-07T18:29:44.749Z,10.77
2019-05-07T18:32:15.222Z,10.72
2019-05-07T18:34:44.907Z,10.63
2019-05-07T18:37:14.533Z,10.56
2019-05-07T18:39:44.157Z,10.49
2019-05-07T18:42:13.887Z,10.48
2019-05-07T18:44:43.588Z,10.43
2019-05-07T18:47:13.220Z,10.35
2019-05-07T18:49:44.848Z,10.27
2019-05-07T18:52:14.512Z,10.17
2019-05-07T18:54:44.170Z,10.10
2019-05-07T18:57:13.857Z,10.07
2019-05-07T18:59:43.519Z,10.04
2019-05-07T19:02:13.169Z,10.00
2019-05-07T19:04:42.981Z,9.95
2019-05-07T19:07:13.272Z,9.94
2019-05-07T19:09:42.983Z,9.90
2019-05-07T19:12:14.350Z,9.93
2019-05-07T19:14:44.097Z,9.98
2019-05-07T19:17:13.720Z,9.99
2019-05-07T19:19:43.431Z,10.01
2019-05-07T19:22:13.431Z,9.92
2019-05-07T19:24:47.920Z,9.78
2019-05-07T19:27:14.570Z,9.65
2019-05-07T19:29:45.876Z,9.51
2019-05-07T19:32:16.769Z,9.39
2019-05-07T19:34:47.291Z,9.30
2019-05-07T19:37:16.916Z,9.24
2019-05-07T19:39:46.542Z,9.13
2019-05-07T19:42:16.213Z,9.08
2019-05-07T19:44:45.838Z,9.05
2019-05-07T19:47:16.238Z,9.07
2019-05-07T19:49:45.869Z,9.00
2019-05-07T19:52:15.498Z,8.90
2019-05-07T19:54:57.893Z,8.87
2019-05-07T19:57:27.212Z,8.86
2019-05-07T19:59:57.013Z,8.80
2019-05-07T20:02:34.035Z,8.75
2019-05-07T20:05:04.125Z,8.77
2019-05-07T20:07:33.786Z,8.70
2019-05-07T20:10:03.535Z,8.59
2019-05-07T20:12:33.163Z,8.49
2019-05-07T20:15:02.942Z,8.41
2019-05-07T20:17:33.631Z,8.50
2019-05-07T20:20:05.591Z,8.59
2019-05-07T20:22:35.209Z,8.64
2019-05-07T20:25:15.247Z,8.50
2019-05-07T20:27:36.802Z,8.40
2019-05-07T20:30:08.113Z,8.41
2019-05-07T20:32:37.803Z,8.47
2019-05-07T20:35:07.845Z,8.55
2019-05-07T20:37:37.787Z,8.65
2019-05-07T20:40:08.102Z,8.72
2019-05-07T20:42:37.730Z,8.79
2019-05-07T20:45:07.475Z,8.81
2019-05-07T20:47:37.138Z,8.80
2019-05-07T20:50:08.196Z,8.71
2019-05-07T20:52:38.011Z,8.58
2019-05-07T20:55:28.168Z,8.51
2019-05-07T20:57:51.665Z,8.41
2019-05-07T21:00:26.342Z,8.39
2019-05-07T21:03:13.949Z,8.44
2019-05-07T21:05:43.611Z,8.51
2019-05-07T21:08:13.225Z,8.56
2019-05-07T21:10:42.873Z,8.55
2019-05-07T21:13:26.809Z,8.49
2019-05-07T21:15:43.883Z,8.44
2019-05-07T21:18:13.534Z,8.40
2019-05-07T21:20:43.182Z,8.45
2019-05-07T21:23:12.792Z,8.50
2019-05-07T21:25:45.827Z,8.53
2019-05-07T21:28:13.914Z,8.55
2019-05-07T21:30:43.526Z,8.47
2019-05-07T21:33:13.162Z,8.47
2019-05-07T21:35:43.081Z,8.48
2019-05-07T21:38:12.864Z,8.49
2019-05-07T21:40:43.337Z,8.50
2019-05-07T21:43:14.223Z,8.51
2019-05-07T21:45:44.001Z,8.50
2019-05-07T21:48:13.838Z,8.52
2019-05-07T21:50:44.317Z,8.53
2019-05-07T21:53:15.576Z,8.53
2019-05-07T21:56:01.824Z,8.48
2019-05-07T21:58:32.868Z,8.46
2019-05-07T22:01:07.301Z,8.43
2019-05-07T22:03:36.916Z,8.43
2019-05-07T22:06:09.603Z,8.32
2019-05-07T22:08:37.984Z,8.29
2019-05-07T22:11:07.606Z,8.30
2019-05-07T22:13:37.306Z,8.32
2019-05-07T22:16:07.360Z,8.31
2019-05-07T22:18:36.978Z,8.28
2019-05-07T22:21:07.692Z,8.24
2019-05-07T22:23:37.719Z,8.21
2019-05-07T22:26:19.278Z,8.19
2019-05-07T22:28:39.155Z,8.20
2019-05-07T22:31:26.445Z,8.19
2019-05-07T22:33:59.356Z,8.21
2019-05-07T22:36:29.182Z,8.20
2019-05-07T22:38:58.856Z,8.18
2019-05-07T22:41:28.485Z,8.16
2019-05-07T22:43:58.107Z,8.17
2019-05-07T22:46:27.803Z,8.15
2019-05-07T22:48:57.433Z,8.13
2019-05-07T22:51:27.101Z,8.11
2019-05-07T22:53:56.758Z,8.08
2019-05-07T22:56:35.059Z,8.08
2019-05-07T22:58:59.354Z,8.07
2019-05-07T23:01:29.059Z,8.05
2019-05-07T23:03:58.753Z,8.02
2019-05-07T23:06:28.366Z,7.98
2019-05-07T23:08:58.013Z,7.96
2019-05-07T23:11:27.631Z,7.94
2019-05-07T23:13:57.324Z,7.91
2019-05-07T23:16:27.121Z,7.87
2019-05-07T23:18:57.017Z,7.85
2019-05-07T23:21:26.646Z,7.81
2019-05-07T23:23:56.347Z,7.75
2019-05-07T23:26:25.967Z,7.69
2019-05-07T23:28:55.658Z,7.67
2019-05-07T23:31:25.322Z,7.63
2019-05-07T23:33:54.934Z,7.58
2019-05-07T23:36:24.561Z,7.54
2019-05-07T23:38:54.219Z,7.57
2019-05-07T23:41:27.895Z,7.57
2019-05-07T23:44:12.416Z,7.57
2019-05-07T23:46:44.879Z,7.55
2019-05-07T23:49:14.240Z,7.55
2019-05-07T23:51:45.064Z,7.57
2019-05-07T23:54:14.695Z,7.56
2019-05-07T23:56:44.371Z,7.55
2019-05-07T23:59:14.973Z,7.53
